Grand Island, Nebraska
Current Conditions -  °F | °C
As of 3:53 AM on Monday 26 Jan 2015 (Local Time) from KGRI Reporting Station
Clear Clear  
Wind Chill: 23°   Ceiling: Unl
Heat Index: 32°   Visibility: 10mi
Dew Point: 26°   Wind: 12mph
Humidity: 79%   Direction: 210°SSW
Pressure: 29.96"   Gusts: NA
Location:  40.92°N, 98.34°W
Report Text: KGRI 260953Z AUTO 21010KT 10SM CLR 00/M03 A2996 RMK AO2 SLP163 T00001033 $
Loading
Personal Weather Stations






























Interactive Weather Map New forecast layout! Learn more

10-Day Weather Forecast

Advertisements
Track Severe Weather on mobile